sensor_id;sensor_type;location;lat;lon;timestamp;temperature;humidity
75262;DHT22;63859;51.064;4.580;2023-02-28T00:01:07;1.00;99.90
75262;DHT22;63859;51.064;4.580;2023-02-28T00:03:32;1.00;99.90
75262;DHT22;63859;51.064;4.580;2023-02-28T00:06:01;1.00;99.90
75262;DHT22;63859;51.064;4.580;2023-02-28T00:08:27;1.00;99.90
75262;DHT22;63859;51.064;4.580;2023-02-28T00:10:53;1.00;99.90
75262;DHT22;63859;51.064;4.580;2023-02-28T00:13:19;0.90;99.90
75262;DHT22;63859;51.064;4.580;2023-02-28T00:15:44;0.90;99.90
75262;DHT22;63859;51.064;4.580;2023-02-28T00:18:11;0.90;99.90
75262;DHT22;63859;51.064;4.580;2023-02-28T00:20:37;0.90;99.90
75262;DHT22;63859;51.064;4.580;2023-02-28T00:23:03;0.90;99.90
75262;DHT22;63859;51.064;4.580;2023-02-28T00:25:28;0.90;99.90
75262;DHT22;63859;51.064;4.580;2023-02-28T00:27:54;0.90;99.90
75262;DHT22;63859;51.064;4.580;2023-02-28T00:30:22;0.90;99.90
75262;DHT22;63859;51.064;4.580;2023-02-28T00:32:48;0.90;99.90
75262;DHT22;63859;51.064;4.580;2023-02-28T00:35:14;0.90;99.90
75262;DHT22;63859;51.064;4.580;2023-02-28T00:37:40;0.90;99.90
75262;DHT22;63859;51.064;4.580;2023-02-28T00:40:06;0.80;99.90
75262;DHT22;63859;51.064;4.580;2023-02-28T00:42:34;0.90;99.90
75262;DHT22;63859;51.064;4.580;2023-02-28T00:45:00;0.90;99.90
75262;DHT22;63859;51.064;4.580;2023-02-28T00:47:26;0.80;99.90
75262;DHT22;63859;51.064;4.580;2023-02-28T00:49:52;0.90;99.90
75262;DHT22;63859;51.064;4.580;2023-02-28T00:52:17;0.90;99.90
75262;DHT22;63859;51.064;4.580;2023-02-28T00:54:43;0.90;99.90
75262;DHT22;63859;51.064;4.580;2023-02-28T00:57:08;0.90;99.90
75262;DHT22;63859;51.064;4.580;2023-02-28T00:59:34;0.90;99.90
75262;DHT22;63859;51.064;4.580;2023-02-28T01:02:00;0.90;99.90
75262;DHT22;63859;51.064;4.580;2023-02-28T01:04:26;0.80;99.90
75262;DHT22;63859;51.064;4.580;2023-02-28T01:06:51;0.80;99.90
75262;DHT22;63859;51.064;4.580;2023-02-28T01:09:18;0.80;99.90
75262;DHT22;63859;51.064;4.580;2023-02-28T01:11:44;0.80;99.90
75262;DHT22;63859;51.064;4.580;2023-02-28T01:14:15;0.80;99.90
75262;DHT22;63859;51.064;4.580;2023-02-28T01:16:41;0.70;99.90
75262;DHT22;63859;51.064;4.580;2023-02-28T01:19:07;0.70;99.90
75262;DHT22;63859;51.064;4.580;2023-02-28T01:21:33;0.70;99.90
75262;DHT22;63859;51.064;4.580;2023-02-28T01:24:00;0.70;99.90
75262;DHT22;63859;51.064;4.580;2023-02-28T01:26:26;0.70;99.90
75262;DHT22;63859;51.064;4.580;2023-02-28T01:28:52;0.70;99.90
75262;DHT22;63859;51.064;4.580;2023-02-28T01:31:19;0.70;99.90
75262;DHT22;63859;51.064;4.580;2023-02-28T01:33:45;0.70;99.90
75262;DHT22;63859;51.064;4.580;2023-02-28T01:36:20;0.80;99.90
75262;DHT22;63859;51.064;4.580;2023-02-28T01:38:47;0.70;99.90
75262;DHT22;63859;51.064;4.580;2023-02-28T01:41:24;0.70;99.90
75262;DHT22;63859;51.064;4.580;2023-02-28T01:46:22;0.70;99.90
75262;DHT22;63859;51.064;4.580;2023-02-28T01:49:07;0.60;99.90
75262;DHT22;63859;51.064;4.580;2023-02-28T01:54:08;0.60;99.90
75262;DHT22;63859;51.064;4.580;2023-02-28T01:56:41;0.60;99.90
75262;DHT22;63859;51.064;4.580;2023-02-28T01:59:09;0.60;99.90
75262;DHT22;63859;51.064;4.580;2023-02-28T02:01:35;0.60;99.90
75262;DHT22;63859;51.064;4.580;2023-02-28T02:04:02;0.50;99.90
75262;DHT22;63859;51.064;4.580;2023-02-28T02:06:41;0.50;99.90
75262;DHT22;63859;51.064;4.580;2023-02-28T02:09:08;0.50;99.90
75262;DHT22;63859;51.064;4.580;2023-02-28T02:11:35;0.50;99.90
75262;DHT22;63859;51.064;4.580;2023-02-28T02:23:02;0.40;99.90
75262;DHT22;63859;51.064;4.580;2023-02-28T02:28:53;0.40;99.90
75262;DHT22;63859;51.064;4.580;2023-02-28T02:32:28;0.40;99.90
75262;DHT22;63859;51.064;4.580;2023-02-28T02:39:54;0.30;99.90
75262;DHT22;63859;51.064;4.580;2023-02-28T02:42:36;0.30;99.90
75262;DHT22;63859;51.064;4.580;2023-02-28T02:45:11;0.30;99.90
75262;DHT22;63859;51.064;4.580;2023-02-28T02:47:39;0.30;99.90
75262;DHT22;63859;51.064;4.580;2023-02-28T02:50:08;0.30;99.90
75262;DHT22;63859;51.064;4.580;2023-02-28T02:52:49;0.30;99.90
75262;DHT22;63859;51.064;4.580;2023-02-28T02:55:17;0.30;99.90
75262;DHT22;63859;51.064;4.580;2023-02-28T02:57:45;0.30;99.90
75262;DHT22;63859;51.064;4.580;2023-02-28T03:00:14;0.30;99.90
75262;DHT22;63859;51.064;4.580;2023-02-28T03:02:41;0.20;99.90
75262;DHT22;63859;51.064;4.580;2023-02-28T03:05:17;0.20;99.90
75262;DHT22;63859;51.064;4.580;2023-02-28T03:07:44;0.20;99.90
75262;DHT22;63859;51.064;4.580;2023-02-28T03:21:42;0.20;99.90
75262;DHT22;63859;51.064;4.580;2023-02-28T03:24:34;0.20;99.90
75262;DHT22;63859;51.064;4.580;2023-02-28T03:27:09;0.10;99.90
75262;DHT22;63859;51.064;4.580;2023-02-28T03:29:43;0.20;99.90
75262;DHT22;63859;51.064;4.580;2023-02-28T03:32:29;0.20;99.90
75262;DHT22;63859;51.064;4.580;2023-02-28T03:35:16;0.20;99.90
75262;DHT22;63859;51.064;4.580;2023-02-28T03:37:50;0.20;99.90
75262;DHT22;63859;51.064;4.580;2023-02-28T03:40:20;0.20;99.90
75262;DHT22;63859;51.064;4.580;2023-02-28T03:42:49;0.10;99.90
75262;DHT22;63859;51.064;4.580;2023-02-28T03:45:26;0.10;99.90
75262;DHT22;63859;51.064;4.580;2023-02-28T03:48:01;0.10;99.90
75262;DHT22;63859;51.064;4.580;2023-02-28T03:50:41;0.10;99.90
75262;DHT22;63859;51.064;4.580;2023-02-28T04:02:00;0.10;99.90
75262;DHT22;63859;51.064;4.580;2023-02-28T04:04:20;0.00;99.90
75262;DHT22;63859;51.064;4.580;2023-02-28T04:06:52;0.00;99.90
75262;DHT22;63859;51.064;4.580;2023-02-28T04:09:18;0.00;99.90
75262;DHT22;63859;51.064;4.580;2023-02-28T04:11:51;0.00;99.90
75262;DHT22;63859;51.064;4.580;2023-02-28T04:14:18;0.10;99.90
75262;DHT22;63859;51.064;4.580;2023-02-28T04:16:44;0.00;99.90
75262;DHT22;63859;51.064;4.580;2023-02-28T04:19:11;0.00;99.90
75262;DHT22;63859;51.064;4.580;2023-02-28T04:21:39;0.00;99.90
75262;DHT22;63859;51.064;4.580;2023-02-28T04:24:06;0.00;99.90
75262;DHT22;63859;51.064;4.580;2023-02-28T04:26:36;0.00;99.90
75262;DHT22;63859;51.064;4.580;2023-02-28T04:29:04;0.00;99.90
75262;DHT22;63859;51.064;4.580;2023-02-28T04:31:30;0.00;99.90
75262;DHT22;63859;51.064;4.580;2023-02-28T04:33:56;0.00;99.90
75262;DHT22;63859;51.064;4.580;2023-02-28T04:36:22;0.00;99.90
75262;DHT22;63859;51.064;4.580;2023-02-28T04:38:49;0.00;99.90
75262;DHT22;63859;51.064;4.580;2023-02-28T04:41:15;0.00;99.90
75262;DHT22;63859;51.064;4.580;2023-02-28T04:43:42;0.00;99.90
75262;DHT22;63859;51.064;4.580;2023-02-28T04:46:08;0.00;99.90
75262;DHT22;63859;51.064;4.580;2023-02-28T04:48:36;0.00;99.90
75262;DHT22;63859;51.064;4.580;2023-02-28T04:51:05;0.00;99.90
75262;DHT22;63859;51.064;4.580;2023-02-28T04:53:31;0.00;99.90
75262;DHT22;63859;51.064;4.580;2023-02-28T04:55:58;0.10;99.90
75262;DHT22;63859;51.064;4.580;2023-02-28T04:58:24;0.10;99.90
75262;DHT22;63859;51.064;4.580;2023-02-28T05:00:50;0.20;99.90
75262;DHT22;63859;51.064;4.580;2023-02-28T05:03:16;0.20;99.90
75262;DHT22;63859;51.064;4.580;2023-02-28T05:05:42;0.20;99.90
75262;DHT22;63859;51.064;4.580;2023-02-28T05:08:07;0.20;99.90
75262;DHT22;63859;51.064;4.580;2023-02-28T05:10:35;0.20;99.90
75262;DHT22;63859;51.064;4.580;2023-02-28T05:13:00;0.30;99.90
75262;DHT22;63859;51.064;4.580;2023-02-28T05:15:26;0.30;99.90
75262;DHT22;63859;51.064;4.580;2023-02-28T05:17:52;0.30;99.90
75262;DHT22;63859;51.064;4.580;2023-02-28T05:20:17;0.30;99.90
75262;DHT22;63859;51.064;4.580;2023-02-28T05:22:43;0.30;99.90
75262;DHT22;63859;51.064;4.580;2023-02-28T05:25:21;0.30;99.90
75262;DHT22;63859;51.064;4.580;2023-02-28T05:27:49;0.30;99.90
75262;DHT22;63859;51.064;4.580;2023-02-28T05:30:15;0.40;99.90
75262;DHT22;63859;51.064;4.580;2023-02-28T05:32:41;0.40;99.90
75262;DHT22;63859;51.064;4.580;2023-02-28T05:35:11;0.40;99.90
75262;DHT22;63859;51.064;4.580;2023-02-28T05:37:38;0.40;99.90
75262;DHT22;63859;51.064;4.580;2023-02-28T05:40:05;0.40;99.90
75262;DHT22;63859;51.064;4.580;2023-02-28T05:42:37;0.40;99.90
75262;DHT22;63859;51.064;4.580;2023-02-28T05:45:06;0.40;99.90
75262;DHT22;63859;51.064;4.580;2023-02-28T05:47:32;0.40;99.90
75262;DHT22;63859;51.064;4.580;2023-02-28T05:49:58;0.40;99.90
75262;DHT22;63859;51.064;4.580;2023-02-28T05:52:24;0.40;99.90
75262;DHT22;63859;51.064;4.580;2023-02-28T05:54:49;0.40;99.90
75262;DHT22;63859;51.064;4.580;2023-02-28T05:57:15;0.50;99.90
75262;DHT22;63859;51.064;4.580;2023-02-28T05:59:41;0.40;99.90
75262;DHT22;63859;51.064;4.580;2023-02-28T06:02:11;0.40;99.90
75262;DHT22;63859;51.064;4.580;2023-02-28T06:04:37;0.50;99.90
75262;DHT22;63859;51.064;4.580;2023-02-28T06:07:03;0.40;99.90
75262;DHT22;63859;51.064;4.580;2023-02-28T06:09:29;0.50;99.90
75262;DHT22;63859;51.064;4.580;2023-02-28T06:11:57;0.50;99.90
75262;DHT22;63859;51.064;4.580;2023-02-28T06:14:22;0.50;99.90
75262;DHT22;63859;51.064;4.580;2023-02-28T06:16:48;0.60;99.90
75262;DHT22;63859;51.064;4.580;2023-02-28T06:19:14;0.50;99.90
75262;DHT22;63859;51.064;4.580;2023-02-28T06:21:40;0.50;99.90
75262;DHT22;63859;51.064;4.580;2023-02-28T06:24:06;0.50;99.90
75262;DHT22;63859;51.064;4.580;2023-02-28T06:26:32;0.50;99.90
75262;DHT22;63859;51.064;4.580;2023-02-28T06:28:57;0.60;99.90
75262;DHT22;63859;51.064;4.580;2023-02-28T06:31:23;0.60;99.90
75262;DHT22;63859;51.064;4.580;2023-02-28T06:33:51;0.60;99.90
75262;DHT22;63859;51.064;4.580;2023-02-28T06:36:17;0.70;99.90
75262;DHT22;63859;51.064;4.580;2023-02-28T06:38:43;0.60;99.90
75262;DHT22;63859;51.064;4.580;2023-02-28T06:41:09;0.70;99.90
75262;DHT22;63859;51.064;4.580;2023-02-28T06:43:39;0.70;99.90
75262;DHT22;63859;51.064;4.580;2023-02-28T06:46:07;0.80;99.90
75262;DHT22;63859;51.064;4.580;2023-02-28T06:48:34;0.80;99.90
75262;DHT22;63859;51.064;4.580;2023-02-28T06:51:05;0.80;99.90
75262;DHT22;63859;51.064;4.580;2023-02-28T06:53:31;0.80;99.90
75262;DHT22;63859;51.064;4.580;2023-02-28T06:55:57;0.90;99.90
75262;DHT22;63859;51.064;4.580;2023-02-28T06:58:22;0.90;99.90
75262;DHT22;63859;51.064;4.580;2023-02-28T07:00:51;1.00;99.90
75262;DHT22;63859;51.064;4.580;2023-02-28T07:03:17;0.90;99.90
75262;DHT22;63859;51.064;4.580;2023-02-28T07:05:43;0.90;99.90
75262;DHT22;63859;51.064;4.580;2023-02-28T07:08:09;1.00;99.90
75262;DHT22;63859;51.064;4.580;2023-02-28T07:10:37;1.00;99.90
75262;DHT22;63859;51.064;4.580;2023-02-28T07:13:04;1.00;99.90
75262;DHT22;63859;51.064;4.580;2023-02-28T07:15:30;1.00;99.90
75262;DHT22;63859;51.064;4.580;2023-02-28T07:17:56;1.00;99.90
75262;DHT22;63859;51.064;4.580;2023-02-28T07:20:22;1.20;99.90
75262;DHT22;63859;51.064;4.580;2023-02-28T07:22:49;1.10;99.90
75262;DHT22;63859;51.064;4.580;2023-02-28T07:25:21;1.10;99.90
75262;DHT22;63859;51.064;4.580;2023-02-28T07:27:47;1.10;99.90
75262;DHT22;63859;51.064;4.580;2023-02-28T07:30:13;1.10;99.90
75262;DHT22;63859;51.064;4.580;2023-02-28T07:32:38;1.20;99.90
75262;DHT22;63859;51.064;4.580;2023-02-28T07:35:04;1.20;99.90
75262;DHT22;63859;51.064;4.580;2023-02-28T07:37:30;1.20;99.90
75262;DHT22;63859;51.064;4.580;2023-02-28T07:40:03;1.30;99.90
75262;DHT22;63859;51.064;4.580;2023-02-28T07:42:31;1.30;99.90
75262;DHT22;63859;51.064;4.580;2023-02-28T07:44:57;1.30;99.90
75262;DHT22;63859;51.064;4.580;2023-02-28T07:47:24;1.40;99.90
75262;DHT22;63859;51.064;4.580;2023-02-28T07:49:50;1.40;99.90
75262;DHT22;63859;51.064;4.580;2023-02-28T07:52:15;1.40;99.90
75262;DHT22;63859;51.064;4.580;2023-02-28T07:54:41;1.50;99.90
75262;DHT22;63859;51.064;4.580;2023-02-28T07:57:06;1.60;99.90
75262;DHT22;63859;51.064;4.580;2023-02-28T07:59:32;1.60;99.90
75262;DHT22;63859;51.064;4.580;2023-02-28T08:01:58;1.70;99.90
75262;DHT22;63859;51.064;4.580;2023-02-28T08:04:25;1.70;99.90
75262;DHT22;63859;51.064;4.580;2023-02-28T08:06:50;1.80;99.90
75262;DHT22;63859;51.064;4.580;2023-02-28T08:09:19;1.90;99.90
75262;DHT22;63859;51.064;4.580;2023-02-28T08:11:45;1.90;99.90
75262;DHT22;63859;51.064;4.580;2023-02-28T08:14:11;2.00;99.90
75262;DHT22;63859;51.064;4.580;2023-02-28T08:16:36;2.10;99.90
75262;DHT22;63859;51.064;4.580;2023-02-28T08:19:02;2.30;99.90
75262;DHT22;63859;51.064;4.580;2023-02-28T08:21:28;2.30;99.90
75262;DHT22;63859;51.064;4.580;2023-02-28T08:23:53;2.40;99.90
75262;DHT22;63859;51.064;4.580;2023-02-28T08:26:19;2.40;99.90
75262;DHT22;63859;51.064;4.580;2023-02-28T08:28:46;2.40;99.90
75262;DHT22;63859;51.064;4.580;2023-02-28T08:31:14;2.50;99.90
75262;DHT22;63859;51.064;4.580;2023-02-28T08:33:40;2.60;99.90
75262;DHT22;63859;51.064;4.580;2023-02-28T08:36:07;2.70;99.90
75262;DHT22;63859;51.064;4.580;2023-02-28T08:38:34;2.80;99.90
75262;DHT22;63859;51.064;4.580;2023-02-28T08:41:02;2.80;99.90
75262;DHT22;63859;51.064;4.580;2023-02-28T08:43:28;2.90;99.90
75262;DHT22;63859;51.064;4.580;2023-02-28T08:45:57;3.00;99.90
75262;DHT22;63859;51.064;4.580;2023-02-28T08:48:24;3.10;99.90
75262;DHT22;63859;51.064;4.580;2023-02-28T08:51:16;3.10;99.90
75262;DHT22;63859;51.064;4.580;2023-02-28T08:53:47;3.10;99.90
75262;DHT22;63859;51.064;4.580;2023-02-28T08:56:15;3.10;99.90
75262;DHT22;63859;51.064;4.580;2023-02-28T08:58:42;3.10;99.90
75262;DHT22;63859;51.064;4.580;2023-02-28T09:01:16;3.00;99.90
75262;DHT22;63859;51.064;4.580;2023-02-28T09:03:43;3.10;99.90
75262;DHT22;63859;51.064;4.580;2023-02-28T09:06:09;3.10;99.90
75262;DHT22;63859;51.064;4.580;2023-02-28T09:08:35;3.20;99.90
75262;DHT22;63859;51.064;4.580;2023-02-28T09:11:01;3.20;99.90
75262;DHT22;63859;51.064;4.580;2023-02-28T09:13:28;3.20;99.90
75262;DHT22;63859;51.064;4.580;2023-02-28T09:15:54;3.20;99.90
75262;DHT22;63859;51.064;4.580;2023-02-28T09:18:22;3.20;99.90
75262;DHT22;63859;51.064;4.580;2023-02-28T09:20:48;3.20;99.90
75262;DHT22;63859;51.064;4.580;2023-02-28T09:23:13;3.20;99.90
75262;DHT22;63859;51.064;4.580;2023-02-28T09:25:49;3.20;99.90
75262;DHT22;63859;51.064;4.580;2023-02-28T09:28:16;3.30;99.90
75262;DHT22;63859;51.064;4.580;2023-02-28T09:30:46;3.30;99.90
75262;DHT22;63859;51.064;4.580;2023-02-28T09:33:13;3.40;99.90
75262;DHT22;63859;51.064;4.580;2023-02-28T09:35:39;3.40;99.90
75262;DHT22;63859;51.064;4.580;2023-02-28T09:38:05;3.40;99.90
75262;DHT22;63859;51.064;4.580;2023-02-28T09:40:36;3.40;99.90
75262;DHT22;63859;51.064;4.580;2023-02-28T09:43:03;3.40;99.90
75262;DHT22;63859;51.064;4.580;2023-02-28T09:45:33;3.50;99.90
75262;DHT22;63859;51.064;4.580;2023-02-28T09:48:04;3.50;99.90
75262;DHT22;63859;51.064;4.580;2023-02-28T09:53:22;3.60;99.90
75262;DHT22;63859;51.064;4.580;2023-02-28T09:55:57;3.60;99.90
75262;DHT22;63859;51.064;4.580;2023-02-28T10:01:31;3.60;99.90
75262;DHT22;63859;51.064;4.580;2023-02-28T10:07:18;3.70;99.90
75262;DHT22;63859;51.064;4.580;2023-02-28T10:09:47;3.70;99.90
75262;DHT22;63859;51.064;4.580;2023-02-28T10:12:17;3.70;99.90
75262;DHT22;63859;51.064;4.580;2023-02-28T10:14:46;3.80;99.90
75262;DHT22;63859;51.064;4.580;2023-02-28T10:17:16;3.80;99.90
75262;DHT22;63859;51.064;4.580;2023-02-28T10:22:57;3.80;99.90
75262;DHT22;63859;51.064;4.580;2023-02-28T10:25:26;3.90;99.90
75262;DHT22;63859;51.064;4.580;2023-02-28T10:28:04;3.90;99.90
75262;DHT22;63859;51.064;4.580;2023-02-28T10:30:34;3.90;99.90
75262;DHT22;63859;51.064;4.580;2023-02-28T10:33:00;4.00;99.90
75262;DHT22;63859;51.064;4.580;2023-02-28T10:35:26;4.10;99.80
75262;DHT22;63859;51.064;4.580;2023-02-28T10:37:57;4.10;99.00
75262;DHT22;63859;51.064;4.580;2023-02-28T10:43:00;4.20;99.00
75262;DHT22;63859;51.064;4.580;2023-02-28T10:45:28;4.30;98.50
75262;DHT22;63859;51.064;4.580;2023-02-28T10:56:00;4.50;95.10
75262;DHT22;63859;51.064;4.580;2023-02-28T11:01:35;4.70;96.40
75262;DHT22;63859;51.064;4.580;2023-02-28T11:04:01;4.80;97.90
75262;DHT22;63859;51.064;4.580;2023-02-28T11:06:33;4.90;96.10
75262;DHT22;63859;51.064;4.580;2023-02-28T11:09:18;4.90;95.30
75262;DHT22;63859;51.064;4.580;2023-02-28T11:11:46;5.00;95.60
75262;DHT22;63859;51.064;4.580;2023-02-28T11:14:24;5.10;94.80
75262;DHT22;63859;51.064;4.580;2023-02-28T11:16:51;5.10;93.90
75262;DHT22;63859;51.064;4.580;2023-02-28T11:19:25;5.20;94.50
75262;DHT22;63859;51.064;4.580;2023-02-28T11:21:57;5.30;94.70
75262;DHT22;63859;51.064;4.580;2023-02-28T11:24:37;5.40;95.10
75262;DHT22;63859;51.064;4.580;2023-02-28T11:27:10;5.50;92.60
75262;DHT22;63859;51.064;4.580;2023-02-28T11:29:47;5.60;93.20
75262;DHT22;63859;51.064;4.580;2023-02-28T11:32:18;5.70;92.80
75262;DHT22;63859;51.064;4.580;2023-02-28T11:34:46;5.80;90.90
75262;DHT22;63859;51.064;4.580;2023-02-28T11:37:18;5.80;90.00
75262;DHT22;63859;51.064;4.580;2023-02-28T11:39:44;5.80;90.70
75262;DHT22;63859;51.064;4.580;2023-02-28T11:44:56;6.10;89.60
75262;DHT22;63859;51.064;4.580;2023-02-28T11:52:50;6.20;82.20
75262;DHT22;63859;51.064;4.580;2023-02-28T11:56:03;6.30;82.40
75262;DHT22;63859;51.064;4.580;2023-02-28T12:12:44;6.90;77.20
75262;DHT22;63859;51.064;4.580;2023-02-28T12:16:06;6.90;73.90
75262;DHT22;63859;51.064;4.580;2023-02-28T12:26:19;7.40;74.00
75262;DHT22;63859;51.064;4.580;2023-02-28T12:28:52;7.60;72.80
75262;DHT22;63859;51.064;4.580;2023-02-28T12:31:26;7.70;71.00
75262;DHT22;63859;51.064;4.580;2023-02-28T12:33:59;7.80;70.00
75262;DHT22;63859;51.064;4.580;2023-02-28T12:36:27;7.80;69.90
75262;DHT22;63859;51.064;4.580;2023-02-28T12:39:13;7.90;70.00
75262;DHT22;63859;51.064;4.580;2023-02-28T12:41:51;8.10;70.90
75262;DHT22;63859;51.064;4.580;2023-02-28T12:44:26;8.00;67.10
75262;DHT22;63859;51.064;4.580;2023-02-28T12:46:58;8.00;65.40
75262;DHT22;63859;51.064;4.580;2023-02-28T12:49:29;8.00;65.90
75262;DHT22;63859;51.064;4.580;2023-02-28T12:51:59;8.20;68.70
75262;DHT22;63859;51.064;4.580;2023-02-28T12:57:09;8.30;65.20
75262;DHT22;63859;51.064;4.580;2023-02-28T13:02:28;8.60;66.50
75262;DHT22;63859;51.064;4.580;2023-02-28T13:05:10;8.60;64.90
75262;DHT22;63859;51.064;4.580;2023-02-28T13:10:22;8.50;63.90
75262;DHT22;63859;51.064;4.580;2023-02-28T13:12:53;8.50;63.90
75262;DHT22;63859;51.064;4.580;2023-02-28T13:15:26;8.60;63.80
75262;DHT22;63859;51.064;4.580;2023-02-28T13:17:56;8.60;63.90
75262;DHT22;63859;51.064;4.580;2023-02-28T13:20:26;8.70;65.20
75262;DHT22;63859;51.064;4.580;2023-02-28T13:22:53;8.60;64.60
75262;DHT22;63859;51.064;4.580;2023-02-28T13:27:49;8.60;62.10
75262;DHT22;63859;51.064;4.580;2023-02-28T13:38:38;9.20;63.30
75262;DHT22;63859;51.064;4.580;2023-02-28T13:44:13;8.90;62.30
75262;DHT22;63859;51.064;4.580;2023-02-28T13:57:54;8.70;62.80
75262;DHT22;63859;51.064;4.580;2023-02-28T14:01:05;8.90;62.60
75262;DHT22;63859;51.064;4.580;2023-02-28T14:11:27;8.80;62.70
75262;DHT22;63859;51.064;4.580;2023-02-28T14:13:53;8.80;63.40
75262;DHT22;63859;51.064;4.580;2023-02-28T14:16:25;8.80;63.10
75262;DHT22;63859;51.064;4.580;2023-02-28T14:21:34;8.90;65.50
75262;DHT22;63859;51.064;4.580;2023-02-28T14:24:03;9.00;65.30
75262;DHT22;63859;51.064;4.580;2023-02-28T14:31:52;8.70;63.40
75262;DHT22;63859;51.064;4.580;2023-02-28T14:37:05;8.60;64.10
75262;DHT22;63859;51.064;4.580;2023-02-28T14:39:33;8.50;64.20
75262;DHT22;63859;51.064;4.580;2023-02-28T14:41:59;8.40;65.80
75262;DHT22;63859;51.064;4.580;2023-02-28T14:44:30;8.30;65.40
75262;DHT22;63859;51.064;4.580;2023-02-28T14:46:59;8.30;66.00
75262;DHT22;63859;51.064;4.580;2023-02-28T14:49:32;8.30;65.40
75262;DHT22;63859;51.064;4.580;2023-02-28T14:54:38;7.90;67.20
75262;DHT22;63859;51.064;4.580;2023-02-28T14:57:04;7.90;66.50
75262;DHT22;63859;51.064;4.580;2023-02-28T14:59:33;7.70;66.10
75262;DHT22;63859;51.064;4.580;2023-02-28T15:02:22;7.60;66.00
75262;DHT22;63859;51.064;4.580;2023-02-28T15:08:17;7.10;68.90
75262;DHT22;63859;51.064;4.580;2023-02-28T15:10:44;6.90;67.30
75262;DHT22;63859;51.064;4.580;2023-02-28T15:13:13;6.80;67.80
75262;DHT22;63859;51.064;4.580;2023-02-28T15:18:24;6.50;68.80
75262;DHT22;63859;51.064;4.580;2023-02-28T15:20:51;6.40;68.70
75262;DHT22;63859;51.064;4.580;2023-02-28T15:23:18;6.30;68.40
75262;DHT22;63859;51.064;4.580;2023-02-28T15:25:44;6.30;69.90
75262;DHT22;63859;51.064;4.580;2023-02-28T15:28:18;6.20;70.80
75262;DHT22;63859;51.064;4.580;2023-02-28T15:31:55;6.20;71.20
75262;DHT22;63859;51.064;4.580;2023-02-28T15:34:04;6.10;71.10
75262;DHT22;63859;51.064;4.580;2023-02-28T15:36:31;6.10;70.60
75262;DHT22;63859;51.064;4.580;2023-02-28T15:38:59;6.10;73.20
75262;DHT22;63859;51.064;4.580;2023-02-28T15:41:31;6.00;73.30
75262;DHT22;63859;51.064;4.580;2023-02-28T15:44:26;6.00;70.90
75262;DHT22;63859;51.064;4.580;2023-02-28T15:49:27;5.90;72.40
75262;DHT22;63859;51.064;4.580;2023-02-28T15:51:56;5.90;72.00
75262;DHT22;63859;51.064;4.580;2023-02-28T15:54:28;5.90;71.80
75262;DHT22;63859;51.064;4.580;2023-02-28T15:56:56;5.90;72.20
75262;DHT22;63859;51.064;4.580;2023-02-28T15:59:27;5.80;72.10
75262;DHT22;63859;51.064;4.580;2023-02-28T16:07:21;5.90;73.00
75262;DHT22;63859;51.064;4.580;2023-02-28T16:09:47;6.00;73.30
75262;DHT22;63859;51.064;4.580;2023-02-28T16:12:13;6.20;73.20
75262;DHT22;63859;51.064;4.580;2023-02-28T16:14:39;6.50;73.10
75262;DHT22;63859;51.064;4.580;2023-02-28T16:17:13;6.80;71.80
75262;DHT22;63859;51.064;4.580;2023-02-28T16:19:42;7.10;72.40
75262;DHT22;63859;51.064;4.580;2023-02-28T16:22:09;7.30;72.40
75262;DHT22;63859;51.064;4.580;2023-02-28T16:24:35;7.30;70.30
75262;DHT22;63859;51.064;4.580;2023-02-28T16:27:00;6.90;70.90
75262;DHT22;63859;51.064;4.580;2023-02-28T16:29:29;6.60;70.90
75262;DHT22;63859;51.064;4.580;2023-02-28T16:31:56;6.30;71.30
75262;DHT22;63859;51.064;4.580;2023-02-28T16:34:23;6.10;73.10
75262;DHT22;63859;51.064;4.580;2023-02-28T16:36:49;6.00;72.90
75262;DHT22;63859;51.064;4.580;2023-02-28T16:39:17;5.90;73.90
75262;DHT22;63859;51.064;4.580;2023-02-28T16:41:45;5.80;74.90
75262;DHT22;63859;51.064;4.580;2023-02-28T16:44:19;5.70;74.80
75262;DHT22;63859;51.064;4.580;2023-02-28T16:46:47;5.60;75.60
75262;DHT22;63859;51.064;4.580;2023-02-28T16:49:12;5.50;76.70
75262;DHT22;63859;51.064;4.580;2023-02-28T16:51:38;5.40;76.60
75262;DHT22;63859;51.064;4.580;2023-02-28T16:54:04;5.40;78.10
75262;DHT22;63859;51.064;4.580;2023-02-28T16:56:30;5.30;78.70
75262;DHT22;63859;51.064;4.580;2023-02-28T16:58:59;5.20;79.40
75262;DHT22;63859;51.064;4.580;2023-02-28T17:01:25;5.10;80.40
75262;DHT22;63859;51.064;4.580;2023-02-28T17:03:53;5.10;80.40
75262;DHT22;63859;51.064;4.580;2023-02-28T17:06:28;5.00;80.40
75262;DHT22;63859;51.064;4.580;2023-02-28T17:08:54;4.90;80.80
75262;DHT22;63859;51.064;4.580;2023-02-28T17:11:21;4.90;81.20
75262;DHT22;63859;51.064;4.580;2023-02-28T17:13:47;4.80;81.90
75262;DHT22;63859;51.064;4.580;2023-02-28T17:16:27;4.70;82.70
75262;DHT22;63859;51.064;4.580;2023-02-28T17:18:57;4.70;83.70
75262;DHT22;63859;51.064;4.580;2023-02-28T17:21:23;4.60;85.40
75262;DHT22;63859;51.064;4.580;2023-02-28T17:23:49;4.60;84.70
75262;DHT22;63859;51.064;4.580;2023-02-28T17:26:16;4.50;86.10
75262;DHT22;63859;51.064;4.580;2023-02-28T17:28:49;4.50;86.80
75262;DHT22;63859;51.064;4.580;2023-02-28T17:31:16;4.50;87.50
75262;DHT22;63859;51.064;4.580;2023-02-28T17:33:42;4.40;89.20
75262;DHT22;63859;51.064;4.580;2023-02-28T17:36:13;4.40;90.40
75262;DHT22;63859;51.064;4.580;2023-02-28T17:38:39;4.40;91.30
75262;DHT22;63859;51.064;4.580;2023-02-28T17:41:05;4.30;91.60
75262;DHT22;63859;51.064;4.580;2023-02-28T17:43:31;4.30;91.40
75262;DHT22;63859;51.064;4.580;2023-02-28T17:45:56;4.30;91.50
75262;DHT22;63859;51.064;4.580;2023-02-28T17:48:23;4.20;92.10
75262;DHT22;63859;51.064;4.580;2023-02-28T17:50:49;4.20;92.80
75262;DHT22;63859;51.064;4.580;2023-02-28T17:53:15;4.10;93.50
75262;DHT22;63859;51.064;4.580;2023-02-28T17:55:42;4.10;93.00
75262;DHT22;63859;51.064;4.580;2023-02-28T17:58:10;4.10;95.80
75262;DHT22;63859;51.064;4.580;2023-02-28T18:00:37;4.00;94.80
75262;DHT22;63859;51.064;4.580;2023-02-28T18:03:03;4.00;94.90
75262;DHT22;63859;51.064;4.580;2023-02-28T18:05:29;3.90;95.40
75262;DHT22;63859;51.064;4.580;2023-02-28T18:07:56;3.90;95.70
75262;DHT22;63859;51.064;4.580;2023-02-28T18:10:22;3.90;95.70
75262;DHT22;63859;51.064;4.580;2023-02-28T18:12:51;3.80;96.80
75262;DHT22;63859;51.064;4.580;2023-02-28T18:15:18;3.70;97.30
75262;DHT22;63859;51.064;4.580;2023-02-28T18:17:45;3.70;98.20
75262;DHT22;63859;51.064;4.580;2023-02-28T18:20:11;3.70;98.60
75262;DHT22;63859;51.064;4.580;2023-02-28T18:22:38;3.70;99.90
75262;DHT22;63859;51.064;4.580;2023-02-28T18:25:05;3.70;99.90
75262;DHT22;63859;51.064;4.580;2023-02-28T18:27:32;3.60;99.90
75262;DHT22;63859;51.064;4.580;2023-02-28T18:29:57;3.60;99.90
75262;DHT22;63859;51.064;4.580;2023-02-28T18:32:23;3.60;99.90
75262;DHT22;63859;51.064;4.580;2023-02-28T18:34:48;3.60;99.90
75262;DHT22;63859;51.064;4.580;2023-02-28T18:37:15;3.60;99.90
75262;DHT22;63859;51.064;4.580;2023-02-28T18:39:43;3.50;99.90
75262;DHT22;63859;51.064;4.580;2023-02-28T18:42:08;3.50;99.90
75262;DHT22;63859;51.064;4.580;2023-02-28T18:44:36;3.50;99.90